METAR AND TAF INFORMATION
METAR FOR SBMD
ADDS - METARS form results

(1857 UTC 06 December 2019)
Data provider http://aviationweather.gov/metar/data/
 
METAR text: SBMD 061800Z 14007KT 9999 SCT030 33/24 Q1010
Conditions at: SBMD (MONTE DOURADO , BR) observed 1800 UTC 06 December 2019
Temperature: 33.0°C (91°F)
Dewpoint: 24.0°C (75°F) [RH = 59%]
Pressure (altimeter): 29.82 inches Hg (1010.0 mb)
Winds: from the SE (140 degrees) at 8 MPH (7 knots; 3.6 m/s)
Visibility: 6 or more miles (10+ km)
Ceiling: at least 12,000 feet AGL
Clouds: scattered clouds at 3000 feet AGL
Weather: no significant weather observed at this time

 AIRPORT MAP

 RUNWAY INFORMATION
Runway 8 Runway length 5906 ft Runway width 98 ft
Runway elevation 0 ft Runway displaced threshold 0 ft Runway heading 0
Runway 26 Runway length 5906 ft Runway width 98 ft
Runway elevation 0 ft Runway displaced threshold 0 ft Runway heading 0

 AIRPORT FREQUENCIES
Type AFIS Name RDO Frequency 125.7 MHZ

 AIRPORT NEAR NAVIGATION AIDS
Type NDB Name Dourado Frequency 305 KHZ



Powered by Virtual Airlines Manager [v2.6.2]